createdAt,value
2019-02-14T00:03:59.371Z,53.89
2019-02-14T00:09:01.476Z,54.14
2019-02-14T00:14:03.532Z,54.22
2019-02-14T00:19:05.608Z,54.45
2019-02-14T00:24:07.756Z,54.45
2019-02-14T00:29:09.868Z,54.61
2019-02-14T00:34:12.022Z,54.77
2019-02-14T00:39:14.099Z,54.83
2019-02-14T00:44:16.153Z,54.98
2019-02-14T00:49:18.297Z,55.05
2019-02-14T00:54:20.329Z,55.17
2019-02-14T00:59:22.404Z,55.24
2019-02-14T01:04:24.461Z,55.45
2019-02-14T01:09:27.865Z,55.67
2019-02-14T01:14:30.093Z,56.01
2019-02-14T01:19:32.154Z,55.85
2019-02-14T01:24:34.248Z,55.90
2019-02-14T01:29:36.292Z,55.87
2019-02-14T01:34:38.422Z,55.85
2019-02-14T01:39:40.612Z,55.77
2019-02-14T01:44:42.678Z,55.81
2019-02-14T01:49:44.842Z,55.81
2019-02-14T01:54:49.076Z,55.75
2019-02-14T01:59:51.188Z,55.84
2019-02-14T02:04:53.304Z,55.95
2019-02-14T02:09:55.420Z,55.89
2019-02-14T02:14:57.483Z,55.82
2019-02-14T02:19:59.550Z,55.85
2019-02-14T02:25:02.069Z,55.88
2019-02-14T02:30:19.186Z,55.85
2019-02-14T02:35:21.250Z,55.90
2019-02-14T02:40:23.423Z,55.93
2019-02-14T02:45:25.563Z,56.09
2019-02-14T02:50:27.617Z,56.27
2019-02-14T02:55:29.723Z,56.26
2019-02-14T03:00:31.812Z,56.08
2019-02-14T03:05:33.901Z,56.05
2019-02-14T03:10:35.997Z,55.87
2019-02-14T03:15:38.138Z,55.75
2019-02-14T03:20:40.222Z,55.85
2019-02-14T03:25:42.317Z,56.07
2019-02-14T03:30:44.330Z,56.39
2019-02-14T03:35:46.379Z,56.17
2019-02-14T03:40:48.469Z,56.28
2019-02-14T03:45:50.527Z,56.22
2019-02-14T03:50:52.703Z,56.15
2019-02-14T03:55:54.801Z,56.07
2019-02-14T04:00:58.337Z,56.08
2019-02-14T04:06:01.634Z,56.12
2019-02-14T04:11:03.752Z,56.63
2019-02-14T04:16:05.817Z,56.56
2019-02-14T04:21:07.932Z,56.48
2019-02-14T04:26:10.023Z,56.41
2019-02-14T04:31:12.065Z,56.24
2019-02-14T04:36:14.160Z,56.43
2019-02-14T04:41:16.216Z,56.38
2019-02-14T04:46:18.306Z,56.35
2019-02-14T04:51:22.196Z,56.36
2019-02-14T04:56:24.226Z,56.34
2019-02-14T05:01:26.290Z,56.39
2019-02-14T05:06:28.238Z,56.49
2019-02-14T05:11:30.369Z,56.60
2019-02-14T05:16:32.437Z,56.96
2019-02-14T05:21:34.474Z,56.69
2019-02-14T05:26:36.634Z,56.64
2019-02-14T05:31:38.733Z,56.50
2019-02-14T05:36:40.774Z,56.68
2019-02-14T05:41:42.881Z,56.93
2019-02-14T05:46:44.980Z,57.18
2019-02-14T05:51:47.097Z,57.32
2019-02-14T05:57:08.782Z,57.33
2019-02-14T06:02:10.884Z,57.33
2019-02-14T06:07:12.977Z,57.40
2019-02-14T06:12:15.026Z,57.28
2019-02-14T06:17:17.133Z,57.36
2019-02-14T06:22:19.207Z,57.26
2019-02-14T06:27:21.284Z,57.25
2019-02-14T06:32:23.363Z,57.17
2019-02-14T06:37:25.479Z,57.61
2019-02-14T06:42:27.553Z,57.63
2019-02-14T06:47:29.610Z,57.24
2019-02-14T06:52:33.488Z,57.20
2019-02-14T06:57:35.558Z,57.35
2019-02-14T07:02:40.509Z,57.47
2019-02-14T07:07:42.603Z,57.28
2019-02-14T07:12:44.665Z,57.29
2019-02-14T07:17:46.758Z,57.40
2019-02-14T07:22:48.843Z,57.61
2019-02-14T07:27:51.040Z,57.42
2019-02-14T07:32:53.113Z,57.48
2019-02-14T07:37:55.290Z,57.26
2019-02-14T07:42:57.389Z,56.95
2019-02-14T07:47:59.470Z,56.69
2019-02-14T07:53:23.890Z,56.55
2019-02-14T07:58:28.077Z,56.47
2019-02-14T08:03:32.091Z,56.41
2019-02-14T08:08:34.325Z,56.33
2019-02-14T08:13:36.518Z,55.68
2019-02-14T08:18:38.741Z,55.72
2019-02-14T08:23:40.895Z,55.28
2019-02-14T08:28:42.949Z,55.01
2019-02-14T08:33:45.140Z,54.68
2019-02-14T08:38:47.288Z,54.61
2019-02-14T08:43:49.370Z,54.55
2019-02-14T08:48:51.418Z,54.03
2019-02-14T08:53:55.393Z,53.82
2019-02-14T08:58:57.565Z,53.58
2019-02-14T09:03:59.644Z,53.40
2019-02-14T09:09:01.785Z,53.30
2019-02-14T09:14:03.909Z,52.79
2019-02-14T09:19:05.996Z,52.36
2019-02-14T09:24:08.038Z,51.95
2019-02-14T09:29:12.713Z,51.66
2019-02-14T09:34:14.229Z,51.69
2019-02-14T09:39:16.635Z,51.69
2019-02-14T09:44:18.719Z,51.35
2019-02-14T09:49:20.822Z,51.09
2019-02-14T09:54:22.933Z,50.74
2019-02-14T09:59:25.033Z,50.76
2019-02-14T10:04:27.149Z,50.18
2019-02-14T10:09:29.245Z,50.37
2019-02-14T10:14:31.289Z,50.24
2019-02-14T10:19:33.430Z,49.72
2019-02-14T10:24:35.518Z,48.91
2019-02-14T10:29:37.556Z,48.63
2019-02-14T10:34:39.697Z,48.24
2019-02-14T10:39:41.753Z,47.50
2019-02-14T10:44:44.038Z,47.78
2019-02-14T10:49:46.194Z,47.00
2019-02-14T10:54:49.130Z,46.94
2019-02-14T10:59:51.193Z,46.71
2019-02-14T11:04:53.265Z,46.91
2019-02-14T11:09:57.224Z,46.37
2019-02-14T11:14:59.412Z,46.44
2019-02-14T11:20:01.537Z,46.59
2019-02-14T11:25:03.996Z,46.69
2019-02-14T11:30:07.460Z,46.29
2019-02-14T11:35:09.546Z,46.27
2019-02-14T11:40:12.012Z,46.38
2019-02-14T11:45:15.255Z,45.98
2019-02-14T11:50:17.325Z,45.91
2019-02-14T11:55:19.366Z,45.55
2019-02-14T12:00:22.493Z,45.14
2019-02-14T12:05:26.181Z,44.78
2019-02-14T12:10:28.365Z,44.20
2019-02-14T12:15:30.480Z,43.89
2019-02-14T12:20:32.630Z,43.67
2019-02-14T12:25:36.510Z,43.79
2019-02-14T12:30:38.584Z,43.62
2019-02-14T12:35:40.684Z,43.63
2019-02-14T12:40:43.060Z,43.33
2019-02-14T12:45:45.153Z,43.52
2019-02-14T12:50:47.422Z,43.28
2019-02-14T12:55:50.092Z,43.23
2019-02-14T13:00:52.259Z,43.47
2019-02-14T13:05:54.407Z,42.96
2019-02-14T13:10:56.563Z,42.90
2019-02-14T13:15:58.633Z,42.89
2019-02-14T13:21:00.682Z,42.83
2019-02-14T13:26:02.784Z,42.94
2019-02-14T13:31:06.749Z,42.76
2019-02-14T13:36:08.771Z,42.77
2019-02-14T13:41:10.881Z,42.68
2019-02-14T13:46:13.036Z,43.07
2019-02-14T13:51:15.136Z,43.27
2019-02-14T13:56:17.253Z,43.26
2019-02-14T14:01:19.347Z,43.49
2019-02-14T14:06:21.436Z,43.27
2019-02-14T14:11:23.561Z,43.80
2019-02-14T14:16:25.679Z,43.58
2019-02-14T14:21:29.640Z,43.53
2019-02-14T14:26:31.779Z,43.02
2019-02-14T14:31:33.864Z,43.30
2019-02-14T14:36:35.956Z,43.09
2019-02-14T14:41:38.028Z,43.23
2019-02-14T14:46:47.249Z,43.17
2019-02-14T14:51:49.322Z,43.18
2019-02-14T14:56:51.392Z,43.46
2019-02-14T15:01:53.449Z,43.03
2019-02-14T15:06:55.507Z,43.04
2019-02-14T15:11:57.707Z,42.92
2019-02-14T15:16:59.767Z,42.92
2019-02-14T15:22:01.879Z,42.81
2019-02-14T15:27:03.942Z,43.08
2019-02-14T15:32:06.036Z,43.04
2019-02-14T15:37:08.128Z,43.17
2019-02-14T15:42:10.203Z,43.40
2019-02-14T15:47:12.309Z,43.47
2019-02-14T15:52:14.391Z,43.64
2019-02-14T15:57:18.211Z,43.96
2019-02-14T16:02:20.359Z,44.58
2019-02-14T16:07:24.823Z,44.73
2019-02-14T16:12:26.950Z,44.72
2019-02-14T16:17:29.063Z,44.99
2019-02-14T16:22:31.106Z,45.01
2019-02-14T16:27:33.245Z,44.97
2019-02-14T16:32:35.398Z,44.99
2019-02-14T16:37:37.639Z,45.05
2019-02-14T16:42:39.762Z,45.17
2019-02-14T16:47:41.860Z,45.21
2019-02-14T16:52:43.920Z,45.27
2019-02-14T16:57:46.143Z,45.37
2019-02-14T17:02:50.198Z,45.47
2019-02-14T17:07:52.258Z,45.63
2019-02-14T17:12:54.363Z,45.78
2019-02-14T17:18:05.295Z,46.01
2019-02-14T17:23:03.779Z,46.21
2019-02-14T17:28:05.857Z,46.38
2019-02-14T17:33:07.967Z,46.49
2019-02-14T17:38:10.107Z,46.73
2019-02-14T17:43:12.188Z,46.93
2019-02-14T17:48:14.250Z,46.94
2019-02-14T17:53:16.375Z,47.01
2019-02-14T17:58:18.410Z,47.17
2019-02-14T18:03:20.508Z,47.33
2019-02-14T18:08:22.565Z,47.44
2019-02-14T18:13:24.762Z,47.54
2019-02-14T18:18:26.818Z,47.77
2019-02-14T18:23:28.931Z,47.86
2019-02-14T18:28:30.973Z,48.02
2019-02-14T18:33:33.046Z,48.16
2019-02-14T18:38:35.129Z,48.32
2019-02-14T18:43:37.272Z,48.53
2019-02-14T18:48:39.434Z,48.74
2019-02-14T18:53:41.518Z,48.86
2019-02-14T18:58:43.566Z,48.95
2019-02-14T19:03:45.727Z,49.12
2019-02-14T19:08:50.224Z,49.23
2019-02-14T19:13:52.317Z,49.41
2019-02-14T19:18:54.349Z,49.62
2019-02-14T19:23:56.451Z,49.71
2019-02-14T19:28:58.564Z,49.77
2019-02-14T19:34:00.641Z,49.92
2019-02-14T19:39:04.332Z,50.15
2019-02-14T19:44:06.534Z,50.30
2019-02-14T19:49:08.602Z,50.43
2019-02-14T19:54:10.715Z,50.60
2019-02-14T19:59:12.843Z,51.01
2019-02-14T20:04:14.941Z,51.14
2019-02-14T20:09:17.052Z,51.25
2019-02-14T20:14:19.190Z,51.45
2019-02-14T20:19:21.274Z,51.55
2019-02-14T20:24:23.419Z,51.75
2019-02-14T20:29:25.493Z,51.93
2019-02-14T20:34:27.549Z,52.06
2019-02-14T20:39:29.652Z,52.14
2019-02-14T20:44:31.727Z,52.27
2019-02-14T20:49:33.816Z,52.16
2019-02-14T20:54:36.137Z,52.17
2019-02-14T20:59:38.204Z,52.06
2019-02-14T21:04:40.297Z,52.10
2019-02-14T21:09:42.354Z,52.40
2019-02-14T21:14:44.350Z,52.26
2019-02-14T21:19:46.436Z,52.30
2019-02-14T21:24:48.513Z,52.62
2019-02-14T21:29:50.665Z,52.55
2019-02-14T21:34:52.746Z,52.58
2019-02-14T21:39:54.826Z,52.54
2019-02-14T21:44:56.921Z,52.46
2019-02-14T21:49:59.057Z,52.53
2019-02-14T21:55:01.191Z,52.62
2019-02-14T22:00:04.661Z,52.62
2019-02-14T22:05:07.741Z,52.62
2019-02-14T22:10:10.353Z,52.64
2019-02-14T22:15:15.226Z,52.75
2019-02-14T22:20:17.433Z,52.75
2019-02-14T22:25:19.498Z,52.83
2019-02-14T22:30:21.573Z,52.94
2019-02-14T22:35:23.622Z,52.90
2019-02-14T22:40:25.746Z,53.05
2019-02-14T22:45:27.861Z,53.27
2019-02-14T22:50:29.945Z,53.31
2019-02-14T22:55:32.032Z,53.46
2019-02-14T23:00:38.085Z,53.60
2019-02-14T23:05:40.133Z,53.99
2019-02-14T23:10:42.215Z,53.92
2019-02-14T23:15:44.321Z,54.15
2019-02-14T23:20:48.776Z,54.21
2019-02-14T23:25:50.806Z,54.34
2019-02-14T23:30:52.857Z,54.21
2019-02-14T23:35:54.980Z,53.97
2019-02-14T23:40:57.045Z,53.87
2019-02-14T23:45:59.097Z,53.92
2019-02-14T23:51:01.163Z,53.88
2019-02-14T23:56:03.192Z,54.19
